Lodi, Texas
Current Conditions -  °F | °C
As of 8:55 PM on Friday 19 Dec 2014 (Local Time) from KASL Reporting Station
Overcast Overcast  
Wind Chill: 48°   Ceiling: 600
Heat Index: 48°   Visibility: 7mi
Dew Point: 46°   Wind: 0mph
Humidity: 91%   Direction: NA
Pressure: 30.2"   Gusts: NA
Location:  32.88°N, 94.28°W
Report Text: KASL 200255Z AUTO 00000KT 7SM OVC006 09/08 A3020 RMK AO1 T00900076
Loading
Personal Weather Stations






























Interactive Weather Map New forecast layout! Learn more

10-Day Weather Forecast

Advertisements
Track Severe Weather on mobile